Aviation Digital Data Service (ADDS)

Output produced by TAFs form (1522 UTC 26 June 2016)
found at http://www.aviationweather.gov/adds/tafs/
 
KSBY 261149Z 2612/2712 00000KT P6SM SCT250 
     TEMPO 2612/2613 3SM BR BKN002 
     FM261400 07006KT P6SM SKC 
     FM261800 11008KT P6SM SKC 
     FM270000 12002KT P6SM SKC 
     FM270800 VRB02KT 2SM BR BKN005